createdAt,value
2022-11-21T00:02:13.492Z,89.52
2022-11-21T00:04:45.135Z,89.75
2022-11-21T00:07:19.468Z,89.79
2022-11-21T00:09:48.247Z,89.56
2022-11-21T00:12:17.348Z,89.63
2022-11-21T00:14:49.513Z,89.66
2022-11-21T00:17:18.313Z,89.55
2022-11-21T00:19:47.606Z,89.60
2022-11-21T00:22:18.336Z,89.80
2022-11-21T00:24:54.344Z,90.26
2022-11-21T00:27:25.315Z,90.54
2022-11-21T00:29:57.574Z,90.73
2022-11-21T00:32:29.922Z,90.85
2022-11-21T00:34:58.180Z,90.77
2022-11-21T00:37:30.598Z,91.06
2022-11-21T00:39:59.900Z,91.27
2022-11-21T00:42:28.280Z,91.38
2022-11-21T00:45:00.520Z,91.57
2022-11-21T00:47:34.593Z,91.78
2022-11-21T00:50:02.802Z,91.80
2022-11-21T00:52:31.883Z,91.73
2022-11-21T00:55:13.071Z,91.63
2022-11-21T00:57:41.283Z,91.55
2022-11-21T01:00:12.527Z,91.64
2022-11-21T01:02:40.734Z,91.80
2022-11-21T01:05:12.009Z,91.89
2022-11-21T01:07:45.991Z,92.01
2022-11-21T01:10:20.359Z,92.17
2022-11-21T01:12:51.318Z,92.42
2022-11-21T01:15:21.970Z,92.64
2022-11-21T01:17:51.548Z,92.69
2022-11-21T01:20:22.062Z,92.83
2022-11-21T01:22:53.150Z,93.14
2022-11-21T01:25:24.064Z,93.27
2022-11-21T01:27:57.604Z,93.40
2022-11-21T01:30:31.116Z,93.39
2022-11-21T01:33:03.957Z,93.46
2022-11-21T01:35:32.220Z,93.44
2022-11-21T01:38:03.037Z,93.45
2022-11-21T01:40:36.119Z,93.44
2022-11-21T01:43:13.841Z,93.53
2022-11-21T01:46:06.158Z,93.67
2022-11-21T01:48:44.556Z,93.69
2022-11-21T01:51:24.004Z,93.57
2022-11-21T01:53:59.415Z,93.55
2022-11-21T01:56:37.744Z,93.49
2022-11-21T01:59:08.074Z,93.68
2022-11-21T02:01:47.305Z,93.68
2022-11-21T02:04:15.948Z,93.43
2022-11-21T02:06:52.579Z,93.18
2022-11-21T02:09:23.006Z,93.06
2022-11-21T02:11:57.968Z,93.11
2022-11-21T02:14:32.575Z,93.08
2022-11-21T02:17:15.784Z,93.23
2022-11-21T02:19:49.542Z,93.33
2022-11-21T02:22:26.593Z,93.35
2022-11-21T02:25:07.308Z,93.43
2022-11-21T02:27:36.768Z,93.28
2022-11-21T02:30:09.111Z,93.30
2022-11-21T02:32:47.972Z,93.35
2022-11-21T02:35:25.088Z,93.51
2022-11-21T02:37:58.498Z,93.68
2022-11-21T02:40:36.108Z,93.83
2022-11-21T02:43:13.201Z,93.95
2022-11-21T02:45:49.740Z,94.05
2022-11-21T02:48:22.493Z,94.14
2022-11-21T02:50:50.665Z,94.20
2022-11-21T02:53:25.238Z,94.32
2022-11-21T02:55:58.159Z,94.46
2022-11-21T02:58:29.727Z,94.51
2022-11-21T03:00:57.993Z,94.54
2022-11-21T03:03:29.889Z,94.51
2022-11-21T03:05:58.306Z,94.22
2022-11-21T03:08:27.860Z,94.20
2022-11-21T03:10:57.435Z,94.13
2022-11-21T03:13:26.245Z,94.03
2022-11-21T03:15:58.306Z,94.03
2022-11-21T03:18:26.587Z,94.03
2022-11-21T03:20:58.329Z,93.92
2022-11-21T03:23:30.917Z,94.01
2022-11-21T03:26:01.758Z,94.00
2022-11-21T03:28:35.117Z,94.03
2022-11-21T03:31:05.563Z,94.09
2022-11-21T03:33:33.763Z,94.17
2022-11-21T03:36:02.417Z,94.39
2022-11-21T03:38:32.793Z,94.51
2022-11-21T03:41:26.773Z,94.52
2022-11-21T03:43:55.080Z,94.57
2022-11-21T03:46:28.773Z,94.49
2022-11-21T03:48:57.299Z,94.33
2022-11-21T03:51:27.339Z,94.30
2022-11-21T03:53:58.996Z,94.23
2022-11-21T03:56:31.067Z,94.18
2022-11-21T03:59:00.135Z,94.11
2022-11-21T04:01:32.389Z,93.97
2022-11-21T04:04:05.605Z,93.88
2022-11-21T04:06:35.997Z,93.88
2022-11-21T04:09:08.277Z,93.67
2022-11-21T04:11:39.001Z,93.35
2022-11-21T04:14:10.259Z,92.98
2022-11-21T04:16:46.683Z,92.59
2022-11-21T04:19:23.055Z,92.24
2022-11-21T04:21:52.881Z,92.02
2022-11-21T04:24:39.280Z,91.47
2022-11-21T04:27:08.845Z,91.19
2022-11-21T04:29:42.939Z,91.16
2022-11-21T04:32:18.589Z,90.82
2022-11-21T04:34:46.806Z,90.66
2022-11-21T04:37:15.355Z,90.63
2022-11-21T04:39:47.228Z,90.68
2022-11-21T04:42:18.751Z,90.77
2022-11-21T04:44:56.783Z,90.80
2022-11-21T04:47:37.749Z,90.72
2022-11-21T04:50:14.551Z,90.90
2022-11-21T04:52:53.508Z,90.86
2022-11-21T04:55:22.722Z,90.88
2022-11-21T04:57:53.215Z,91.04
2022-11-21T05:00:24.663Z,91.10
2022-11-21T05:02:53.319Z,90.99
2022-11-21T05:05:21.580Z,91.02
2022-11-21T05:08:01.209Z,90.95
2022-11-21T05:10:52.314Z,91.15
2022-11-21T05:13:23.727Z,91.11
2022-11-21T05:15:59.081Z,91.08
2022-11-21T05:18:31.705Z,91.11
2022-11-21T05:21:12.987Z,91.13
2022-11-21T05:23:47.051Z,91.06
2022-11-21T05:26:34.971Z,90.95
2022-11-21T05:29:07.271Z,90.89
2022-11-21T05:31:35.582Z,90.89
2022-11-21T05:34:03.732Z,91.00
2022-11-21T05:36:36.755Z,91.01
2022-11-21T05:39:11.974Z,91.04
2022-11-21T05:41:44.063Z,91.24
2022-11-21T05:44:15.707Z,91.32
2022-11-21T05:46:49.099Z,91.37
2022-11-21T05:49:18.340Z,91.65
2022-11-21T05:51:46.564Z,91.69
2022-11-21T05:54:16.430Z,91.96
2022-11-21T05:56:48.132Z,91.97
2022-11-21T05:59:18.937Z,92.11
2022-11-21T06:02:09.233Z,92.03
2022-11-21T06:04:40.902Z,91.92
2022-11-21T06:07:15.524Z,91.80
2022-11-21T06:09:43.790Z,91.53
2022-11-21T06:12:19.286Z,91.29
2022-11-21T06:14:55.540Z,91.08
2022-11-21T06:17:26.368Z,90.95
2022-11-21T06:19:54.761Z,90.86
2022-11-21T06:22:23.037Z,90.89
2022-11-21T06:24:53.986Z,91.21
2022-11-21T06:27:27.886Z,91.52
2022-11-21T06:30:00.293Z,91.59
2022-11-21T06:32:28.614Z,91.51
2022-11-21T06:35:03.708Z,91.60
2022-11-21T06:37:33.290Z,91.60
2022-11-21T06:40:07.733Z,91.76
2022-11-21T06:42:39.261Z,91.78
2022-11-21T06:45:14.319Z,91.76
2022-11-21T06:47:49.267Z,91.80
2022-11-21T06:50:18.449Z,91.87
2022-11-21T06:52:52.435Z,91.90
2022-11-21T06:55:29.297Z,91.83
2022-11-21T06:57:59.679Z,91.89
2022-11-21T07:00:29.211Z,91.68
2022-11-21T07:03:03.910Z,91.46
2022-11-21T07:05:32.395Z,91.43
2022-11-21T07:08:01.696Z,91.59
2022-11-21T07:10:31.182Z,91.54
2022-11-21T07:13:16.533Z,91.56
2022-11-21T07:15:47.410Z,91.61
2022-11-21T07:18:16.124Z,91.66
2022-11-21T07:20:46.650Z,91.80
2022-11-21T07:23:15.559Z,92.01
2022-11-21T07:25:48.093Z,92.07
2022-11-21T07:28:22.164Z,92.10
2022-11-21T07:30:51.776Z,92.03
2022-11-21T07:33:22.792Z,91.82
2022-11-21T07:35:51.203Z,91.66
2022-11-21T07:38:19.479Z,91.53
2022-11-21T07:40:47.681Z,91.33
2022-11-21T07:43:16.060Z,91.04
2022-11-21T07:45:44.224Z,90.69
2022-11-21T07:48:17.211Z,90.33
2022-11-21T07:50:47.460Z,89.81
2022-11-21T07:53:18.513Z,89.33
2022-11-21T07:55:47.674Z,89.13
2022-11-21T07:58:18.497Z,89.01
2022-11-21T08:00:49.293Z,88.82
2022-11-21T08:03:19.461Z,88.65
2022-11-21T08:05:51.542Z,88.43
2022-11-21T08:08:19.847Z,88.37
2022-11-21T08:10:48.056Z,88.27
2022-11-21T08:13:19.205Z,87.83
2022-11-21T08:15:50.665Z,87.77
2022-11-21T08:18:22.547Z,87.78
2022-11-21T08:20:50.876Z,87.48
2022-11-21T08:23:19.338Z,87.35
2022-11-21T08:25:47.729Z,87.33
2022-11-21T08:28:22.337Z,87.06
2022-11-21T08:30:52.734Z,86.51
2022-11-21T08:33:27.217Z,86.18
2022-11-21T08:35:55.444Z,86.25
2022-11-21T08:38:23.736Z,86.05
2022-11-21T08:41:17.447Z,85.71
2022-11-21T08:43:46.091Z,85.63
2022-11-21T08:46:14.390Z,85.31
2022-11-21T08:48:43.999Z,85.25
2022-11-21T08:51:14.502Z,84.77
2022-11-21T08:53:42.953Z,84.77
2022-11-21T08:56:15.388Z,84.42
2022-11-21T08:58:45.780Z,84.36
2022-11-21T09:01:14.179Z,84.48
2022-11-21T09:03:43.885Z,84.48
2022-11-21T09:06:13.353Z,84.16
2022-11-21T09:08:45.351Z,83.94
2022-11-21T09:11:13.551Z,84.01
2022-11-21T09:13:41.782Z,83.88
2022-11-21T09:16:32.729Z,83.47
2022-11-21T09:19:03.514Z,83.39
2022-11-21T09:21:31.736Z,83.07
2022-11-21T09:23:59.944Z,83.13
2022-11-21T09:26:31.558Z,83.22
2022-11-21T09:28:59.850Z,83.17
2022-11-21T09:31:28.616Z,82.97
2022-11-21T09:34:02.391Z,82.46
2022-11-21T09:36:32.231Z,82.43
2022-11-21T09:39:00.428Z,82.27
2022-11-21T09:41:54.533Z,81.88
2022-11-21T09:44:59.321Z,81.52
2022-11-21T09:47:29.779Z,81.14
2022-11-21T09:50:02.873Z,80.75
2022-11-21T09:52:42.195Z,80.49
2022-11-21T09:55:27.851Z,80.10
2022-11-21T09:57:59.417Z,80.14
2022-11-21T10:00:29.485Z,80.06
2022-11-21T10:03:01.991Z,80.18
2022-11-21T10:05:37.227Z,79.91
2022-11-21T10:08:16.719Z,79.55
2022-11-21T10:10:58.181Z,79.41
2022-11-21T10:13:47.684Z,79.33
2022-11-21T10:16:22.231Z,79.52
2022-11-21T10:19:33.928Z,79.31
2022-11-21T10:22:23.094Z,79.32
2022-11-21T10:24:57.910Z,78.93
2022-11-21T10:27:33.954Z,79.33
2022-11-21T10:30:08.211Z,79.08
2022-11-21T10:32:42.221Z,79.21
2022-11-21T10:35:17.643Z,79.93
2022-11-21T10:37:52.948Z,79.24
2022-11-21T10:40:38.717Z,78.98
2022-11-21T10:43:37.438Z,79.13
2022-11-21T10:46:09.707Z,79.20
2022-11-21T10:48:38.002Z,79.17
2022-11-21T10:51:24.483Z,79.37
2022-11-21T10:54:23.430Z,79.28
2022-11-21T10:56:54.407Z,79.36
2022-11-21T10:59:30.730Z,79.28
2022-11-21T11:02:00.984Z,79.58
2022-11-21T11:04:41.598Z,79.40
2022-11-21T11:07:23.574Z,79.51
2022-11-21T11:09:53.565Z,79.42
2022-11-21T11:12:47.061Z,79.13
2022-11-21T11:15:21.720Z,79.24
2022-11-21T11:17:56.209Z,78.68
2022-11-21T11:20:34.664Z,78.62
2022-11-21T11:23:17.506Z,78.66
2022-11-21T11:25:52.927Z,78.77
2022-11-21T11:28:24.065Z,78.39
2022-11-21T11:30:53.930Z,78.92
2022-11-21T11:33:34.237Z,78.30
2022-11-21T11:36:17.399Z,78.52
2022-11-21T11:38:52.694Z,78.27
2022-11-21T11:42:00.837Z,78.51
2022-11-21T11:45:02.152Z,78.32
2022-11-21T11:47:35.442Z,78.30
2022-11-21T11:50:12.603Z,78.73
2022-11-21T11:52:53.349Z,78.94
2022-11-21T11:55:31.827Z,78.93
2022-11-21T11:58:06.202Z,79.01
2022-11-21T12:00:43.384Z,78.92
2022-11-21T12:03:19.888Z,79.08
2022-11-21T12:05:58.537Z,79.01
2022-11-21T12:08:42.911Z,78.98
2022-11-21T12:11:47.774Z,78.88
2022-11-21T12:14:54.333Z,79.18
2022-11-21T12:17:40.079Z,79.19
2022-11-21T12:20:17.321Z,79.36
2022-11-21T12:22:51.230Z,79.32
2022-11-21T12:25:28.471Z,79.33
2022-11-21T12:27:59.227Z,79.43
2022-11-21T12:31:00.163Z,79.47
2022-11-21T12:33:48.437Z,79.14
2022-11-21T12:36:27.431Z,79.10
2022-11-21T12:39:33.869Z,79.17
2022-11-21T12:42:44.746Z,79.02
2022-11-21T12:45:28.778Z,79.31
2022-11-21T12:48:37.885Z,79.28
2022-11-21T12:52:06.198Z,79.33
2022-11-21T12:55:26.292Z,79.42
2022-11-21T12:58:20.858Z,79.48
2022-11-21T13:01:21.109Z,79.55
2022-11-21T13:04:01.589Z,78.97
2022-11-21T13:06:37.344Z,79.47
2022-11-21T13:09:10.928Z,79.33
2022-11-21T13:12:02.634Z,79.63
2022-11-21T13:14:36.576Z,79.49
2022-11-21T13:17:28.150Z,79.21
2022-11-21T13:20:09.463Z,79.27
2022-11-21T13:23:01.076Z,79.19
2022-11-21T13:25:57.288Z,79.24
2022-11-21T13:28:39.988Z,79.54
2022-11-21T13:31:33.224Z,79.53
2022-11-21T13:34:16.172Z,79.71
2022-11-21T13:36:45.270Z,79.54
2022-11-21T13:39:39.856Z,79.30
2022-11-21T13:42:31.007Z,79.58
2022-11-21T13:45:00.117Z,79.87
2022-11-21T13:48:11.750Z,79.73
2022-11-21T13:51:09.961Z,79.87
2022-11-21T13:53:58.442Z,79.97
2022-11-21T13:56:47.155Z,80.14
2022-11-21T13:59:41.773Z,79.93
2022-11-21T14:02:43.271Z,80.08
2022-11-21T14:05:36.414Z,79.82
2022-11-21T14:08:24.358Z,79.30
2022-11-21T14:10:59.539Z,79.17
2022-11-21T14:13:43.296Z,79.12
2022-11-21T14:16:25.115Z,79.08
2022-11-21T14:18:56.948Z,79.14
2022-11-21T14:21:30.056Z,78.98
2022-11-21T14:24:04.416Z,79.04
2022-11-21T14:26:40.330Z,78.66
2022-11-21T14:29:24.941Z,79.07
2022-11-21T14:31:55.736Z,78.92
2022-11-21T14:34:29.026Z,78.80
2022-11-21T14:37:00.775Z,79.00
2022-11-21T14:39:40.762Z,78.83
2022-11-21T14:42:15.099Z,78.92
2022-11-21T14:44:45.044Z,78.83
2022-11-21T14:47:26.342Z,78.86
2022-11-21T14:50:07.494Z,78.71
2022-11-21T14:52:59.916Z,78.95
2022-11-21T14:55:36.983Z,79.06
2022-11-21T14:58:19.943Z,79.23
2022-11-21T15:01:12.920Z,78.88
2022-11-21T15:03:58.590Z,79.09
2022-11-21T15:06:27.291Z,79.15
2022-11-21T15:10:11.614Z,79.09
2022-11-21T15:11:55.819Z,78.89
2022-11-21T15:14:28.491Z,78.80
2022-11-21T15:17:04.654Z,79.08
2022-11-21T15:19:36.853Z,78.90
2022-11-21T15:22:08.028Z,78.89
2022-11-21T15:25:13.085Z,79.08
2022-11-21T15:27:50.735Z,78.84
2022-11-21T15:30:33.601Z,78.98
2022-11-21T15:33:17.441Z,79.10
2022-11-21T15:35:53.700Z,79.04
2022-11-21T15:38:39.866Z,79.15
2022-11-21T15:41:28.834Z,79.43
2022-11-21T15:44:22.514Z,79.53
2022-11-21T15:46:53.029Z,79.42
2022-11-21T15:49:32.940Z,79.16
2022-11-21T15:52:09.788Z,78.86
2022-11-21T15:54:38.552Z,78.87
2022-11-21T15:57:07.322Z,78.98
2022-11-21T15:59:36.634Z,78.90
2022-11-21T16:02:05.661Z,79.04
2022-11-21T16:04:35.955Z,79.02
2022-11-21T16:07:04.338Z,79.06
2022-11-21T16:09:33.368Z,79.40
2022-11-21T16:12:01.734Z,79.59
2022-11-21T16:14:29.984Z,79.75
2022-11-21T16:16:58.248Z,79.71
2022-11-21T16:19:26.765Z,79.89
2022-11-21T16:21:58.271Z,79.90
2022-11-21T16:24:26.533Z,80.36
2022-11-21T16:26:55.457Z,80.63
2022-11-21T16:29:23.657Z,80.79
2022-11-21T16:31:52.503Z,80.71
2022-11-21T16:34:20.872Z,80.85
2022-11-21T16:36:50.596Z,80.81
2022-11-21T16:39:20.456Z,80.75
2022-11-21T16:41:49.479Z,81.27
2022-11-21T16:44:18.203Z,81.55
2022-11-21T16:46:49.176Z,81.60
2022-11-21T16:49:17.411Z,81.65
2022-11-21T16:51:46.297Z,81.76
2022-11-21T16:54:14.567Z,82.10
2022-11-21T16:56:44.142Z,82.38
2022-11-21T16:59:12.981Z,82.33
2022-11-21T17:01:41.343Z,82.54
2022-11-21T17:04:15.654Z,82.91
2022-11-21T17:06:47.037Z,82.76
2022-11-21T17:09:16.386Z,82.97
2022-11-21T17:11:46.241Z,83.04
2022-11-21T17:14:16.884Z,82.93
2022-11-21T17:16:45.822Z,83.12
2022-11-21T17:19:16.229Z,83.45
2022-11-21T17:21:44.710Z,82.97
2022-11-21T17:24:13.724Z,82.64
2022-11-21T17:26:45.205Z,82.65
2022-11-21T17:29:13.472Z,82.24
2022-11-21T17:31:42.735Z,82.26
2022-11-21T17:34:11.731Z,82.26
2022-11-21T17:36:40.074Z,82.55
2022-11-21T17:39:08.617Z,82.59
2022-11-21T17:41:38.065Z,82.71
2022-11-21T17:44:08.203Z,83.22
2022-11-21T17:46:36.405Z,82.89
2022-11-21T17:49:05.632Z,82.88
2022-11-21T17:51:34.962Z,83.11
2022-11-21T17:54:05.813Z,83.02
2022-11-21T17:56:42.368Z,83.24
2022-11-21T17:59:14.993Z,83.30
2022-11-21T18:01:43.454Z,83.04
2022-11-21T18:04:15.273Z,83.00
2022-11-21T18:06:43.900Z,83.20
2022-11-21T18:09:12.953Z,82.83
2022-11-21T18:11:41.747Z,82.80
2022-11-21T18:14:10.924Z,82.79
2022-11-21T18:16:44.691Z,82.59
2022-11-21T18:19:16.079Z,82.42
2022-11-21T18:21:44.273Z,82.70
2022-11-21T18:24:12.600Z,82.90
2022-11-21T18:26:41.226Z,82.76
2022-11-21T18:29:35.141Z,82.37
2022-11-21T18:32:01.070Z,82.65
2022-11-21T18:34:29.351Z,83.05
2022-11-21T18:36:57.577Z,83.59
2022-11-21T18:39:27.008Z,83.74
2022-11-21T18:41:55.575Z,83.90
2022-11-21T18:44:23.814Z,84.03
2022-11-21T18:46:51.997Z,84.17
2022-11-21T18:49:27.933Z,84.39
2022-11-21T18:52:00.116Z,84.58
2022-11-21T18:54:28.397Z,84.64
2022-11-21T18:56:57.269Z,84.64
2022-11-21T18:59:25.516Z,85.01
2022-11-21T19:01:54.255Z,85.48
2022-11-21T19:04:23.527Z,85.98
2022-11-21T19:06:53.317Z,85.73
2022-11-21T19:09:31.029Z,85.94
2022-11-21T19:12:19.303Z,86.67
2022-11-21T19:14:57.193Z,86.67
2022-11-21T19:17:34.112Z,86.86
2022-11-21T19:20:11.483Z,86.90
2022-11-21T19:25:30.092Z,86.08
2022-11-21T19:28:03.876Z,86.32
2022-11-21T19:30:40.601Z,86.86
2022-11-21T19:33:31.958Z,87.23
2022-11-21T19:36:02.798Z,87.46
2022-11-21T19:38:52.237Z,87.66
2022-11-21T19:41:30.785Z,88.42
2022-11-21T19:44:04.977Z,88.86
2022-11-21T19:46:53.337Z,88.96
2022-11-21T19:49:24.928Z,89.10
2022-11-21T19:51:58.111Z,89.35
2022-11-21T19:54:35.845Z,89.63
2022-11-21T19:57:13.690Z,89.63
2022-11-21T19:59:46.924Z,89.66
2022-11-21T20:02:21.278Z,89.72
2022-11-21T20:04:57.281Z,89.82
2022-11-21T20:07:29.070Z,89.67
2022-11-21T20:09:58.791Z,89.82
2022-11-21T20:12:29.602Z,89.94
2022-11-21T20:14:57.835Z,90.08
2022-11-21T20:17:29.218Z,90.09
2022-11-21T20:19:58.766Z,90.23
2022-11-21T20:22:26.996Z,90.39
2022-11-21T20:24:55.323Z,90.48
2022-11-21T20:27:25.017Z,90.40
2022-11-21T20:29:53.319Z,90.44
2022-11-21T20:32:21.536Z,90.63
2022-11-21T20:34:49.819Z,90.58
2022-11-21T20:37:18.036Z,90.67
2022-11-21T20:39:46.305Z,90.40
2022-11-21T20:42:14.652Z,90.57
2022-11-21T20:45:41.645Z,90.92
2022-11-21T20:47:37.979Z,91.08
2022-11-21T20:50:08.713Z,91.04
2022-11-21T20:55:25.557Z,90.18
2022-11-21T20:57:54.474Z,90.01
2022-11-21T21:00:24.285Z,90.25
2022-11-21T21:02:52.427Z,90.48
2022-11-21T21:05:20.618Z,90.18
2022-11-21T21:07:48.869Z,89.94
2022-11-21T21:10:17.785Z,89.86
2022-11-21T21:12:48.760Z,90.01
2022-11-21T21:15:17.184Z,90.18
2022-11-21T21:17:47.471Z,90.05
2022-11-21T21:20:15.907Z,90.01
2022-11-21T21:22:45.823Z,89.92
2022-11-21T21:25:14.073Z,89.98
2022-11-21T21:27:42.267Z,90.08
2022-11-21T21:30:11.605Z,89.99
2022-11-21T21:32:39.831Z,89.99
2022-11-21T21:35:13.308Z,89.98
2022-11-21T21:37:42.620Z,89.99
2022-11-21T21:40:11.946Z,89.83
2022-11-21T21:42:40.184Z,89.58
2022-11-21T21:45:09.568Z,89.36
2022-11-21T21:47:38.186Z,89.06
2022-11-21T21:50:15.517Z,89.40
2022-11-21T21:52:44.137Z,89.54
2022-11-21T21:55:12.330Z,89.57
2022-11-21T21:57:46.084Z,89.61
2022-11-21T22:00:16.600Z,89.60
2022-11-21T22:02:44.860Z,89.70
2022-11-21T22:05:14.891Z,89.83
2022-11-21T22:07:43.227Z,89.81
2022-11-21T22:10:11.577Z,89.94
2022-11-21T22:12:43.818Z,89.92
2022-11-21T22:15:12.501Z,89.91
2022-11-21T22:17:40.849Z,89.70
2022-11-21T22:20:10.016Z,89.60
2022-11-21T22:22:39.812Z,89.83
2022-11-21T22:25:09.070Z,89.89
2022-11-21T22:27:37.378Z,89.71
2022-11-21T22:30:06.727Z,89.60
2022-11-21T22:32:35.041Z,89.53
2022-11-21T22:35:03.437Z,89.53
2022-11-21T22:37:32.586Z,89.62
2022-11-21T22:40:02.129Z,89.46
2022-11-21T22:42:30.945Z,89.26
2022-11-21T22:44:59.244Z,89.01
2022-11-21T22:47:27.421Z,88.84
2022-11-21T22:49:56.110Z,88.92
2022-11-21T22:52:24.866Z,88.69
2022-11-21T22:54:54.434Z,88.92
2022-11-21T22:57:24.547Z,89.05
2022-11-21T22:59:53.703Z,88.68
2022-11-21T23:02:23.129Z,88.41
2022-11-21T23:04:51.764Z,88.24
2022-11-21T23:07:20.210Z,87.94
2022-11-21T23:09:49.376Z,87.86
2022-11-21T23:12:17.780Z,87.74
2022-11-21T23:14:47.362Z,87.61
2022-11-21T23:17:16.262Z,87.03
2022-11-21T23:19:44.588Z,86.58
2022-11-21T23:22:13.976Z,86.54
2022-11-21T23:24:42.447Z,86.49
2022-11-21T23:27:10.674Z,86.87
2022-11-21T23:29:38.987Z,87.09
2022-11-21T23:32:08.753Z,86.81
2022-11-21T23:34:37.005Z,86.54
2022-11-21T23:37:07.770Z,86.29
2022-11-21T23:39:36.069Z,86.04
2022-11-21T23:42:04.498Z,86.10
2022-11-21T23:44:33.360Z,86.48
2022-11-21T23:47:01.587Z,86.58
2022-11-21T23:49:31.657Z,86.50
2022-11-21T23:52:00.027Z,86.64
2022-11-21T23:54:28.396Z,86.52
2022-11-21T23:56:56.668Z,86.13
2022-11-21T23:59:25.013Z,85.51
